createdAt,value
2022-11-08T00:00:03.655Z,12.90
2022-11-08T00:02:30.433Z,12.90
2022-11-08T00:05:17.779Z,13.00
2022-11-08T00:08:03.279Z,13.00
2022-11-08T00:10:48.534Z,13.10
2022-11-08T00:13:35.987Z,13.10
2022-11-08T00:16:02.877Z,13.20
2022-11-08T00:18:29.548Z,13.20
2022-11-08T00:21:00.074Z,13.20
2022-11-08T00:23:31.286Z,13.20
2022-11-08T00:25:57.937Z,13.20
2022-11-08T00:28:24.702Z,13.30
2022-11-08T00:30:56.092Z,13.40
2022-11-08T00:33:22.721Z,13.40
2022-11-08T00:36:00.376Z,13.50
2022-11-08T00:38:29.242Z,13.50
2022-11-08T00:40:58.133Z,13.50
2022-11-08T00:43:24.810Z,13.50
2022-11-08T00:45:53.838Z,13.50
2022-11-08T00:48:20.826Z,13.60
2022-11-08T00:50:47.792Z,13.60
2022-11-08T00:53:16.733Z,13.60
2022-11-08T00:55:43.481Z,13.70
2022-11-08T00:58:12.949Z,13.70
2022-11-08T01:00:39.688Z,13.70
2022-11-08T01:03:21.355Z,13.80
2022-11-08T01:05:49.258Z,13.80
2022-11-08T01:08:17.761Z,13.80
2022-11-08T01:10:47.198Z,13.80
2022-11-08T01:13:17.529Z,13.80
2022-11-08T01:15:49.670Z,13.90
2022-11-08T01:18:20.303Z,13.90
2022-11-08T01:20:50.554Z,13.90
2022-11-08T01:23:19.015Z,13.90
2022-11-08T01:25:47.061Z,13.90
2022-11-08T01:28:14.044Z,13.90
2022-11-08T01:30:43.144Z,13.90
2022-11-08T01:33:10.514Z,13.90
2022-11-08T01:35:37.779Z,14.00
2022-11-08T01:38:05.912Z,14.00
2022-11-08T01:40:33.403Z,14.00
2022-11-08T01:43:29.849Z,13.90
2022-11-08T01:46:20.010Z,13.90
2022-11-08T01:49:05.279Z,13.80
2022-11-08T01:51:39.613Z,13.80
2022-11-08T01:54:10.363Z,13.80
2022-11-08T01:56:38.087Z,13.80
2022-11-08T01:59:07.857Z,13.80
2022-11-08T02:01:37.932Z,13.80
2022-11-08T02:04:05.573Z,13.70
2022-11-08T02:06:36.285Z,13.70
2022-11-08T02:09:08.297Z,13.60
2022-11-08T02:11:37.486Z,13.60
2022-11-08T02:14:07.309Z,13.60
2022-11-08T02:16:34.016Z,13.50
2022-11-08T02:19:00.665Z,13.40
2022-11-08T02:21:44.558Z,13.40
2022-11-08T02:24:13.172Z,13.30
2022-11-08T02:26:40.900Z,13.30
2022-11-08T02:29:27.518Z,13.30
2022-11-08T02:31:57.786Z,13.20
2022-11-08T02:34:44.248Z,13.10
2022-11-08T02:37:16.345Z,13.10
2022-11-08T02:39:43.192Z,13.10
2022-11-08T02:42:14.374Z,13.10
2022-11-08T02:44:43.244Z,13.00
2022-11-08T02:47:09.972Z,13.00
2022-11-08T02:49:39.264Z,13.00
2022-11-08T02:52:08.787Z,12.90
2022-11-08T02:54:35.538Z,12.90
2022-11-08T02:57:04.611Z,12.80
2022-11-08T02:59:31.322Z,12.80
2022-11-08T03:01:58.139Z,12.80
2022-11-08T03:04:24.920Z,12.70
2022-11-08T03:06:51.624Z,12.70
2022-11-08T03:09:20.535Z,12.70
2022-11-08T03:11:49.766Z,12.60
2022-11-08T03:14:16.410Z,12.60
2022-11-08T03:16:45.426Z,12.60
2022-11-08T03:19:12.388Z,12.60
2022-11-08T03:21:41.260Z,12.60
2022-11-08T03:24:08.516Z,12.60
2022-11-08T03:26:35.193Z,12.50
2022-11-08T03:29:04.370Z,12.50
2022-11-08T03:31:33.513Z,12.50
2022-11-08T03:34:00.184Z,12.40
2022-11-08T03:36:26.949Z,12.40
2022-11-08T03:38:56.144Z,12.40
2022-11-08T03:41:22.862Z,12.40
2022-11-08T03:43:49.486Z,12.40
2022-11-08T03:46:16.277Z,12.40
2022-11-08T03:48:42.961Z,12.40
2022-11-08T03:51:14.347Z,12.40
2022-11-08T03:53:41.047Z,12.40
2022-11-08T03:56:08.281Z,12.30
2022-11-08T03:58:37.396Z,12.30
2022-11-08T04:01:05.903Z,12.30
2022-11-08T04:03:34.755Z,12.20
2022-11-08T04:06:03.040Z,12.20
2022-11-08T04:08:30.271Z,12.20
2022-11-08T04:11:17.925Z,12.20
2022-11-08T04:14:05.587Z,12.20
2022-11-08T04:16:33.115Z,12.20
2022-11-08T04:19:19.392Z,12.10
2022-11-08T04:21:48.514Z,12.10
2022-11-08T04:24:15.212Z,12.00
2022-11-08T04:26:41.898Z,12.00
2022-11-08T04:29:09.665Z,12.00
2022-11-08T04:31:36.656Z,11.90
2022-11-08T04:34:03.684Z,11.90
2022-11-08T04:36:33.346Z,11.90
2022-11-08T04:39:04.378Z,11.80
2022-11-08T04:41:31.156Z,11.90
2022-11-08T04:44:02.833Z,11.80
2022-11-08T04:46:30.103Z,11.80
2022-11-08T04:48:59.145Z,11.80
2022-11-08T04:51:34.069Z,11.80
2022-11-08T04:54:02.359Z,11.80
2022-11-08T04:56:32.874Z,11.70
2022-11-08T04:59:05.264Z,11.70
2022-11-08T05:01:37.468Z,11.70
2022-11-08T05:04:04.383Z,11.70
2022-11-08T05:06:32.368Z,11.70
2022-11-08T05:08:59.941Z,11.70
2022-11-08T05:11:30.510Z,11.60
2022-11-08T05:13:59.718Z,11.60
2022-11-08T05:16:29.292Z,11.70
2022-11-08T05:18:58.504Z,11.60
2022-11-08T05:21:44.456Z,11.50
2022-11-08T05:24:13.952Z,11.60
2022-11-08T05:26:42.542Z,11.60
2022-11-08T05:29:09.610Z,11.60
2022-11-08T05:31:36.392Z,11.50
2022-11-08T05:34:03.505Z,11.50
2022-11-08T05:36:30.480Z,11.50
2022-11-08T05:38:57.301Z,11.50
2022-11-08T05:41:25.427Z,11.50
2022-11-08T05:43:56.011Z,11.50
2022-11-08T05:46:23.823Z,11.50
2022-11-08T05:48:53.562Z,11.40
2022-11-08T05:51:22.740Z,11.40
2022-11-08T05:53:51.995Z,11.40
2022-11-08T05:56:20.878Z,11.40
2022-11-08T05:58:47.538Z,11.40
2022-11-08T06:01:18.647Z,11.40
2022-11-08T06:03:48.614Z,11.40
2022-11-08T06:06:22.067Z,11.40
2022-11-08T06:08:52.154Z,11.40
2022-11-08T06:11:22.718Z,11.40
2022-11-08T06:14:00.187Z,11.40
2022-11-08T06:16:29.140Z,11.40
2022-11-08T06:19:02.830Z,11.40
2022-11-08T06:21:32.186Z,11.30
2022-11-08T06:24:01.382Z,11.30
2022-11-08T06:26:28.215Z,11.30
2022-11-08T06:28:54.935Z,11.30
2022-11-08T06:31:24.182Z,11.30
2022-11-08T06:33:50.858Z,11.30
2022-11-08T06:36:17.666Z,11.30
2022-11-08T06:38:46.734Z,11.30
2022-11-08T06:41:19.279Z,11.30
2022-11-08T06:43:48.744Z,11.30
2022-11-08T06:46:15.998Z,11.30
2022-11-08T06:48:42.627Z,11.20
2022-11-08T06:51:11.495Z,11.20
2022-11-08T06:53:38.289Z,11.20
2022-11-08T06:56:05.089Z,11.40
2022-11-08T06:58:31.859Z,11.30
2022-11-08T07:00:58.619Z,11.40
2022-11-08T07:03:25.314Z,11.40
2022-11-08T07:05:52.355Z,11.40
2022-11-08T07:08:24.019Z,11.40
2022-11-08T07:10:52.300Z,11.30
2022-11-08T07:13:19.501Z,11.40
2022-11-08T07:15:48.852Z,11.40
2022-11-08T07:18:17.980Z,11.40
2022-11-08T07:20:45.044Z,11.50
2022-11-08T07:23:12.152Z,11.50
2022-11-08T07:25:41.175Z,11.50
2022-11-08T07:28:18.341Z,11.50
2022-11-08T07:30:46.340Z,11.50
2022-11-08T07:33:16.744Z,11.50
2022-11-08T07:35:47.697Z,11.60
2022-11-08T07:38:14.516Z,11.60
2022-11-08T07:40:44.022Z,11.60
2022-11-08T07:43:13.408Z,11.60
2022-11-08T07:45:41.713Z,11.60
2022-11-08T07:48:12.613Z,11.70
2022-11-08T07:50:43.735Z,11.80
2022-11-08T07:53:10.695Z,11.80
2022-11-08T07:55:38.313Z,11.80
2022-11-08T07:58:05.628Z,11.90
2022-11-08T08:00:36.883Z,11.90
2022-11-08T08:03:07.649Z,11.90
2022-11-08T08:05:40.077Z,12.00
2022-11-08T08:08:07.822Z,12.10
2022-11-08T08:10:42.101Z,12.20
2022-11-08T08:13:12.037Z,12.20
2022-11-08T08:15:39.044Z,12.30
2022-11-08T08:18:07.375Z,12.30
2022-11-08T08:20:34.791Z,12.40
2022-11-08T08:23:01.836Z,12.40
2022-11-08T08:25:32.015Z,12.50
2022-11-08T08:28:00.887Z,12.50
2022-11-08T08:30:31.369Z,12.50
2022-11-08T08:33:33.216Z,12.60
2022-11-08T08:36:03.319Z,12.60
2022-11-08T08:38:33.667Z,12.70
2022-11-08T08:41:03.507Z,12.70
2022-11-08T08:43:32.666Z,12.80
2022-11-08T08:46:04.848Z,12.80
2022-11-08T08:48:34.113Z,12.90
2022-11-08T08:51:03.308Z,13.00
2022-11-08T08:53:30.024Z,13.00
2022-11-08T08:55:59.277Z,13.00
2022-11-08T08:58:25.932Z,13.00
2022-11-08T09:03:46.768Z,13.10
2022-11-08T09:06:13.453Z,13.20
2022-11-08T09:08:40.165Z,13.30
2022-11-08T09:11:09.158Z,13.20
2022-11-08T09:13:40.397Z,13.30
2022-11-08T09:16:10.209Z,13.30
2022-11-08T09:18:37.069Z,13.40
2022-11-08T09:21:04.375Z,13.40
2022-11-08T09:23:31.454Z,13.50
2022-11-08T09:26:03.780Z,13.50
2022-11-08T09:28:32.125Z,13.50
2022-11-08T09:31:09.943Z,13.50
2022-11-08T09:33:40.590Z,13.50
2022-11-08T09:36:09.236Z,13.50
2022-11-08T09:38:41.552Z,13.60
2022-11-08T09:41:17.017Z,13.70
2022-11-08T09:44:01.200Z,13.60
2022-11-08T09:46:51.519Z,13.70
2022-11-08T09:49:34.146Z,13.80
2022-11-08T09:52:04.360Z,13.70
2022-11-08T09:54:53.941Z,13.80
2022-11-08T09:57:26.485Z,13.80
2022-11-08T10:00:05.774Z,13.90
2022-11-08T10:02:36.677Z,13.90
2022-11-08T10:05:09.504Z,14.00
2022-11-08T10:07:52.023Z,14.00
2022-11-08T10:10:48.593Z,14.00
2022-11-08T10:13:33.025Z,14.00
2022-11-08T10:16:14.594Z,14.10
2022-11-08T10:18:59.868Z,14.10
2022-11-08T10:21:47.890Z,14.10
2022-11-08T10:24:32.695Z,14.10
2022-11-08T10:27:00.385Z,14.10
2022-11-08T10:29:37.364Z,14.10
2022-11-08T10:32:15.982Z,14.00
2022-11-08T10:34:55.904Z,14.10
2022-11-08T10:37:24.150Z,14.10
2022-11-08T10:40:34.474Z,14.10
2022-11-08T10:43:13.629Z,14.10
2022-11-08T10:45:43.232Z,14.20
2022-11-08T10:48:11.922Z,14.20
2022-11-08T10:50:50.846Z,14.30
2022-11-08T10:53:24.465Z,14.40
2022-11-08T10:55:58.149Z,14.50
2022-11-08T10:58:38.951Z,14.60
2022-11-08T11:01:19.560Z,14.60
2022-11-08T11:03:48.106Z,14.70
2022-11-08T11:06:33.546Z,14.70
2022-11-08T11:09:04.476Z,14.80
2022-11-08T11:11:31.169Z,14.80
2022-11-08T11:14:07.843Z,14.80
2022-11-08T11:16:38.372Z,15.00
2022-11-08T11:19:06.947Z,15.20
2022-11-08T11:21:39.859Z,15.40
2022-11-08T11:24:19.387Z,15.50
2022-11-08T11:27:05.871Z,15.70
2022-11-08T11:29:37.324Z,15.80
2022-11-08T11:32:33.499Z,16.10
2022-11-08T11:35:03.070Z,16.30
2022-11-08T11:37:45.867Z,16.50
2022-11-08T11:40:42.662Z,16.40
2022-11-08T11:43:24.252Z,16.20
2022-11-08T11:46:04.535Z,16.10
2022-11-08T11:48:39.547Z,16.10
2022-11-08T11:51:10.635Z,16.20
2022-11-08T11:53:39.786Z,16.50
2022-11-08T11:56:26.238Z,16.40
2022-11-08T11:59:05.517Z,16.40
2022-11-08T12:01:54.014Z,16.30
2022-11-08T12:04:38.616Z,16.20
2022-11-08T12:07:16.476Z,16.00
2022-11-08T12:09:51.623Z,16.10
2022-11-08T12:12:23.544Z,16.10
2022-11-08T12:15:23.901Z,16.00
2022-11-08T12:18:08.015Z,15.80
2022-11-08T12:20:49.317Z,15.80
2022-11-08T12:23:51.740Z,15.80
2022-11-08T12:26:43.160Z,15.70
2022-11-08T12:29:29.486Z,15.70
2022-11-08T12:32:20.558Z,15.60
2022-11-08T12:35:15.079Z,15.60
2022-11-08T12:37:41.743Z,15.70
2022-11-08T12:40:27.701Z,15.60
2022-11-08T12:43:15.635Z,15.60
2022-11-08T12:46:00.208Z,15.70
2022-11-08T12:49:05.152Z,15.80
2022-11-08T12:52:10.244Z,15.80
2022-11-08T12:54:51.455Z,15.80
2022-11-08T12:57:28.040Z,15.90
2022-11-08T13:00:33.049Z,15.90
2022-11-08T13:03:12.341Z,15.90
2022-11-08T13:06:00.797Z,15.90
2022-11-08T13:08:37.625Z,16.00
2022-11-08T13:11:08.009Z,16.00
2022-11-08T13:13:37.523Z,16.10
2022-11-08T13:16:18.476Z,16.10
2022-11-08T13:18:50.980Z,16.10
2022-11-08T13:21:38.972Z,16.10
2022-11-08T13:24:14.223Z,16.20
2022-11-08T13:26:55.871Z,16.10
2022-11-08T13:29:27.365Z,16.10
2022-11-08T13:31:54.029Z,16.00
2022-11-08T13:34:49.697Z,16.10
2022-11-08T13:37:39.075Z,16.10
2022-11-08T13:40:43.794Z,16.00
2022-11-08T13:43:21.274Z,16.00
2022-11-08T13:45:48.632Z,16.00
2022-11-08T13:48:25.124Z,16.10
2022-11-08T13:50:57.190Z,16.10
2022-11-08T13:53:51.426Z,16.10
2022-11-08T13:56:23.930Z,16.20
2022-11-08T13:58:50.931Z,16.20
2022-11-08T14:01:25.920Z,16.40
2022-11-08T14:03:56.626Z,16.60
2022-11-08T14:06:56.979Z,16.60
2022-11-08T14:10:11.665Z,16.70
2022-11-08T14:12:53.446Z,16.80
2022-11-08T14:15:24.837Z,16.80
2022-11-08T14:18:18.556Z,16.80
2022-11-08T14:20:47.021Z,16.80
2022-11-08T14:23:20.214Z,16.90
2022-11-08T14:25:55.895Z,17.00
2022-11-08T14:28:32.568Z,17.00
2022-11-08T14:31:05.731Z,17.10
2022-11-08T14:33:40.709Z,17.00
2022-11-08T14:36:13.538Z,17.00
2022-11-08T14:38:59.336Z,16.90
2022-11-08T14:41:28.873Z,16.90
2022-11-08T14:44:00.743Z,16.90
2022-11-08T14:46:37.140Z,16.90
2022-11-08T14:49:21.716Z,16.90
2022-11-08T14:52:17.233Z,16.90
2022-11-08T14:54:46.601Z,16.80
2022-11-08T14:57:35.535Z,16.80
2022-11-08T15:00:14.399Z,16.80
2022-11-08T15:02:44.328Z,16.80
2022-11-08T15:05:40.393Z,16.80
2022-11-08T15:08:22.625Z,16.80
2022-11-08T15:10:56.895Z,16.80
2022-11-08T15:13:28.927Z,16.70
2022-11-08T15:16:01.407Z,16.70
2022-11-08T15:18:43.166Z,16.70
2022-11-08T15:21:13.628Z,16.70
2022-11-08T15:23:46.628Z,16.70
2022-11-08T15:26:19.545Z,16.70
2022-11-08T15:29:08.263Z,16.70
2022-11-08T15:31:42.219Z,16.60
2022-11-08T15:34:37.211Z,16.60
2022-11-08T15:37:29.522Z,16.60
2022-11-08T15:40:00.416Z,16.70
2022-11-08T15:42:29.431Z,16.60
2022-11-08T15:45:05.587Z,16.60
2022-11-08T15:47:37.360Z,16.60
2022-11-08T15:50:14.681Z,16.60
2022-11-08T15:52:42.162Z,16.50
2022-11-08T15:55:14.790Z,16.50
2022-11-08T15:57:43.729Z,16.50
2022-11-08T16:00:15.831Z,16.50
2022-11-08T16:02:43.136Z,16.60
2022-11-08T16:05:25.321Z,16.50
2022-11-08T16:07:52.608Z,16.60
2022-11-08T16:10:26.124Z,16.60
2022-11-08T16:12:55.404Z,16.60
2022-11-08T16:15:28.744Z,16.60
2022-11-08T16:17:55.615Z,16.60
2022-11-08T16:20:27.833Z,16.60
2022-11-08T16:22:59.258Z,16.60
2022-11-08T16:25:29.752Z,16.60
2022-11-08T16:28:09.158Z,16.50
2022-11-08T16:30:36.128Z,16.50
2022-11-08T16:33:15.994Z,16.50
2022-11-08T16:35:42.697Z,16.50
2022-11-08T16:38:11.773Z,16.50
2022-11-08T16:40:41.340Z,16.50
2022-11-08T16:43:11.887Z,16.50
2022-11-08T16:46:03.659Z,16.50
2022-11-08T16:48:29.745Z,16.40
2022-11-08T16:51:03.807Z,16.40
2022-11-08T16:53:33.145Z,16.40
2022-11-08T16:56:00.124Z,16.40
2022-11-08T16:58:31.500Z,16.40
2022-11-08T17:00:58.327Z,16.40
2022-11-08T17:03:26.335Z,16.40
2022-11-08T17:05:55.322Z,16.30
2022-11-08T17:08:22.827Z,16.30
2022-11-08T17:10:49.544Z,16.30
2022-11-08T17:13:20.164Z,16.20
2022-11-08T17:15:48.431Z,16.30
2022-11-08T17:18:22.079Z,16.20
2022-11-08T17:20:52.530Z,16.20
2022-11-08T17:23:19.602Z,16.20
2022-11-08T17:25:46.514Z,16.20
2022-11-08T17:28:13.523Z,16.20
2022-11-08T17:30:44.440Z,16.10
2022-11-08T17:33:48.336Z,16.10
2022-11-08T17:36:19.498Z,16.10
2022-11-08T17:38:49.195Z,16.10
2022-11-08T17:41:19.073Z,16.10
2022-11-08T17:43:50.870Z,16.10
2022-11-08T17:46:28.072Z,16.10
2022-11-08T17:48:54.831Z,16.00
2022-11-08T17:51:31.118Z,16.10
2022-11-08T17:54:00.511Z,16.00
2022-11-08T17:56:33.356Z,16.10
2022-11-08T17:59:00.135Z,16.10
2022-11-08T18:01:29.079Z,16.00
2022-11-08T18:03:55.874Z,16.10
2022-11-08T18:06:22.553Z,16.10
2022-11-08T18:08:51.684Z,16.10
2022-11-08T18:11:21.170Z,16.10
2022-11-08T18:13:48.135Z,16.20
2022-11-08T18:16:17.904Z,16.10
2022-11-08T18:18:46.952Z,16.20
2022-11-08T18:21:14.577Z,16.10
2022-11-08T18:23:45.078Z,16.10
2022-11-08T18:26:17.571Z,16.10
2022-11-08T18:28:47.181Z,16.00
2022-11-08T18:31:20.141Z,16.10
2022-11-08T18:33:48.144Z,16.00
2022-11-08T18:36:20.350Z,16.10
2022-11-08T18:38:51.333Z,16.10
2022-11-08T18:41:25.304Z,16.10
2022-11-08T18:43:53.237Z,16.20
2022-11-08T18:46:25.098Z,16.20
2022-11-08T18:48:54.668Z,16.20
2022-11-08T18:51:24.830Z,16.20
2022-11-08T18:53:55.038Z,16.20
2022-11-08T18:56:21.783Z,16.20
2022-11-08T18:58:51.059Z,16.20
2022-11-08T19:01:20.183Z,16.20
2022-11-08T19:03:46.922Z,16.20
2022-11-08T19:06:16.482Z,16.20
2022-11-08T19:08:43.257Z,16.20
2022-11-08T19:11:12.019Z,16.20
2022-11-08T19:13:42.883Z,16.20
2022-11-08T19:16:18.528Z,16.30
2022-11-08T19:18:49.647Z,16.30
2022-11-08T19:21:22.015Z,16.30
2022-11-08T19:23:49.781Z,16.30
2022-11-08T19:26:21.845Z,16.30
2022-11-08T19:28:49.402Z,16.30
2022-11-08T19:31:22.876Z,16.20
2022-11-08T19:33:51.880Z,16.30
2022-11-08T19:36:21.817Z,16.10
2022-11-08T19:38:49.514Z,16.00
2022-11-08T19:41:21.958Z,16.00
2022-11-08T19:43:51.800Z,16.00
2022-11-08T19:46:24.034Z,16.00
2022-11-08T19:48:52.321Z,16.00
2022-11-08T19:51:25.003Z,16.00
2022-11-08T19:54:12.588Z,16.00
2022-11-08T19:57:04.065Z,16.00
2022-11-08T19:59:28.396Z,16.00
2022-11-08T20:01:57.407Z,15.90
2022-11-08T20:04:24.730Z,15.90
2022-11-08T20:06:53.741Z,15.90
2022-11-08T20:09:21.337Z,15.90
2022-11-08T20:11:50.356Z,15.80
2022-11-08T20:14:17.179Z,15.90
2022-11-08T20:16:49.171Z,15.90
2022-11-08T20:19:19.201Z,15.90
2022-11-08T20:21:48.363Z,16.00
2022-11-08T20:24:15.615Z,16.00
2022-11-08T20:26:42.906Z,16.00
2022-11-08T20:29:14.085Z,16.00
2022-11-08T20:31:46.794Z,16.00
2022-11-08T20:34:13.486Z,16.10
2022-11-08T20:36:41.668Z,16.10
2022-11-08T20:39:17.021Z,16.00
2022-11-08T20:41:48.710Z,16.10
2022-11-08T20:44:20.023Z,16.10
2022-11-08T20:46:49.345Z,16.00
2022-11-08T20:49:18.555Z,16.10
2022-11-08T20:51:47.972Z,16.20
2022-11-08T20:54:43.898Z,16.20
2022-11-08T20:57:10.843Z,16.20
2022-11-08T20:59:37.572Z,16.20
2022-11-08T21:02:04.587Z,16.10
2022-11-08T21:04:31.412Z,16.20
2022-11-08T21:07:59.433Z,16.20
2022-11-08T21:09:51.759Z,16.20
2022-11-08T21:12:25.091Z,16.10
2022-11-08T21:14:54.142Z,16.10
2022-11-08T21:17:22.521Z,16.10
2022-11-08T21:19:51.972Z,16.20
2022-11-08T21:22:21.584Z,16.10
2022-11-08T21:24:49.200Z,16.10
2022-11-08T21:27:16.995Z,16.10
2022-11-08T21:29:45.996Z,16.10
2022-11-08T21:32:15.421Z,16.10
2022-11-08T21:34:45.594Z,16.10
2022-11-08T21:37:13.525Z,16.10
2022-11-08T21:39:44.891Z,16.10
2022-11-08T21:42:11.702Z,16.10
2022-11-08T21:44:41.456Z,16.10
2022-11-08T21:47:08.174Z,16.00
2022-11-08T21:49:34.881Z,16.00
2022-11-08T21:52:02.198Z,15.90
2022-11-08T21:54:28.879Z,16.00
2022-11-08T21:57:00.253Z,15.90
2022-11-08T21:59:26.933Z,15.90
2022-11-08T22:01:53.615Z,15.90
2022-11-08T22:04:22.438Z,15.90
2022-11-08T22:06:49.256Z,15.80
2022-11-08T22:09:18.516Z,15.80
2022-11-08T22:11:47.586Z,15.80
2022-11-08T22:14:16.869Z,15.80
2022-11-08T22:16:43.621Z,15.80
2022-11-08T22:19:13.403Z,15.80
2022-11-08T22:21:43.072Z,15.80
2022-11-08T22:24:10.002Z,15.90
2022-11-08T22:26:40.063Z,15.80
2022-11-08T22:29:07.352Z,15.80
2022-11-08T22:31:36.165Z,15.80
2022-11-08T22:34:08.267Z,15.80
2022-11-08T22:36:37.811Z,15.80
2022-11-08T22:39:17.179Z,15.80
2022-11-08T22:41:45.168Z,15.80
2022-11-08T22:44:13.192Z,15.80
2022-11-08T22:46:43.371Z,15.80
2022-11-08T22:49:11.343Z,15.70
2022-11-08T22:51:39.034Z,15.70
2022-11-08T22:54:07.880Z,15.80
2022-11-08T22:56:41.785Z,15.70
2022-11-08T22:59:08.796Z,15.70
2022-11-08T23:01:35.820Z,15.70
2022-11-08T23:04:02.813Z,15.70
2022-11-08T23:06:30.139Z,15.70
2022-11-08T23:08:57.412Z,15.60
2022-11-08T23:11:44.811Z,15.60
2022-11-08T23:14:37.168Z,15.60
2022-11-08T23:17:08.003Z,15.60
2022-11-08T23:19:55.607Z,15.50
2022-11-08T23:22:40.976Z,15.50
2022-11-08T23:25:07.865Z,15.50
2022-11-08T23:27:52.961Z,15.50
2022-11-08T23:30:55.287Z,15.50
2022-11-08T23:33:26.454Z,15.40
2022-11-08T23:36:11.358Z,15.40
2022-11-08T23:38:44.266Z,15.50
2022-11-08T23:41:29.464Z,15.40
2022-11-08T23:44:14.918Z,15.30
2022-11-08T23:46:41.675Z,15.40
2022-11-08T23:49:08.371Z,15.40
2022-11-08T23:51:37.219Z,15.40
2022-11-08T23:54:04.007Z,15.40
2022-11-08T23:56:30.697Z,15.30
2022-11-08T23:58:59.356Z,15.30
